Time,TemperatureF,DewpointF,PressureIn,WindDirection,WindDirectionDegrees,WindSpeedMPH,WindSpeedGustMPH,Humidity,HourlyPrecipIn,Conditions,Clouds,dailyrainin,SoftwareType,DateUTC
2013-01-18 00:00:00,-11.2,-15.7,30.23,SE,135,0.0,0.0,80,0.00,CLR,SKC,0.00,WeatherDisplay:10.37,2013-01-18 06:00:00,
2013-01-18 00:05:00,-11.2,-15.7,30.24,SE,135,0.0,0.0,80,0.00,CLR,SKC,0.00,WeatherDisplay:10.37,2013-01-18 06:05:00,
2013-01-18 00:11:00,-11.2,-15.9,30.24,SE,135,0.0,0.0,79,0.00,CLR,SKC,0.00,WeatherDisplay:10.37,2013-01-18 06:11:00,
2013-01-18 00:16:00,-11.2,-15.9,30.24,South,180,1.1,0.0,79,0.00,CLR,SKC,0.00,WeatherDisplay:10.37,2013-01-18 06:16:00,
2013-01-18 00:21:00,-11.2,-15.9,30.24,SE,135,1.6,0.0,79,0.00,CLR,SKC,0.00,WeatherDisplay:10.37,2013-01-18 06:21:00,
2013-01-18 00:27:00,-11.2,-15.9,30.24,SE,135,1.1,0.0,79,0.00,CLR,SKC,0.00,WeatherDisplay:10.37,2013-01-18 06:27:00,
2013-01-18 00:32:00,-11.0,-15.5,30.24,SE,135,2.3,2.3,80,0.00,CLR,SKC,0.00,WeatherDisplay:10.37,2013-01-18 06:32:00,
2013-01-18 00:37:00,-10.8,-15.3,30.24,SE,135,1.1,0.0,80,0.00,CLR,SKC,0.00,WeatherDisplay:10.37,2013-01-18 06:37:00,
2013-01-18 00:42:00,-10.8,-15.3,30.24,SE,135,0.0,0.0,80,0.00,CLR,SKC,0.00,WeatherDisplay:10.37,2013-01-18 06:42:00,
2013-01-18 00:47:00,-10.7,-15.1,30.23,SE,135,1.1,1.1,80,0.00,CLR,SKC,0.00,WeatherDisplay:10.37,2013-01-18 06:47:00,
2013-01-18 00:52:00,-10.1,-14.6,30.22,SE,135,1.1,0.0,80,0.00,CLR,SKC,0.00,WeatherDisplay:10.37,2013-01-18 06:52:00,
2013-01-18 00:57:00,-9.9,-14.2,30.22,SE,135,0.0,0.0,81,0.00,CLR,SKC,0.00,WeatherDisplay:10.37,2013-01-18 06:57:00,
2013-01-18 01:03:00,-9.6,-13.8,30.23,SW,225,1.1,0.0,81,0.00,CLR,SKC,0.00,WeatherDisplay:10.37,2013-01-18 07:03:00,
2013-01-18 01:08:00,-9.0,-13.3,30.23,South,180,2.3,2.3,81,0.00,CLR,SKC,0.00,WeatherDisplay:10.37,2013-01-18 07:08:00,
2013-01-18 01:13:00,-8.9,-13.1,30.23,East,90,1.1,0.0,81,0.00,CLR,SKC,0.00,WeatherDisplay:10.37,2013-01-18 07:13:00,
2013-01-18 01:18:00,-8.5,-12.8,30.23,SE,135,2.3,2.3,81,0.00,CLR,SKC,0.00,WeatherDisplay:10.37,2013-01-18 07:18:00,
2013-01-18 01:23:00,-8.0,-12.0,30.23,SE,135,0.0,0.0,82,0.00,CLR,SKC,0.00,WeatherDisplay:10.37,2013-01-18 07:23:00,
2013-01-18 01:29:00,-7.4,-11.5,30.22,South,180,2.3,0.0,82,0.00,CLR,SKC,0.00,WeatherDisplay:10.37,2013-01-18 07:29:00,
2013-01-18 01:34:00,-7.1,-11.1,30.22,South,180,1.1,0.0,82,0.00,CLR,SKC,0.00,WeatherDisplay:10.37,2013-01-18 07:34:00,
2013-01-18 01:39:00,-6.5,-10.6,30.23,East,90,1.1,0.0,82,0.00,CLR,SKC,0.00,WeatherDisplay:10.37,2013-01-18 07:39:00,
2013-01-18 01:44:00,-5.8,-9.9,30.23,South,180,3.5,3.5,82,0.00,CLR,SKC,0.00,WeatherDisplay:10.37,2013-01-18 07:44:00,
2013-01-18 01:49:00,-5.3,-9.1,30.23,NE,45,1.1,0.0,83,0.00,CLR,SKC,0.00,WeatherDisplay:10.37,2013-01-18 07:49:00,
2013-01-18 01:55:00,-4.7,-8.6,30.23,SE,135,1.1,1.1,83,0.00,CLR,SKC,0.00,WeatherDisplay:10.37,2013-01-18 07:55:00,
2013-01-18 02:00:00,-4.0,-7.9,30.23,SE,135,3.5,0.0,83,0.00,CLR,SKC,0.00,WeatherDisplay:10.37,2013-01-18 08:00:00,
2013-01-18 02:05:00,-4.0,-7.6,30.23,East,90,0.0,0.0,84,0.00,CLR,SKC,0.00,WeatherDisplay:10.37,2013-01-18 08:05:00,
2013-01-18 02:10:00,-3.1,-6.7,30.23,East,90,0.0,0.0,84,0.00,CLR,SKC,0.00,WeatherDisplay:10.37,2013-01-18 08:10:00,
2013-01-18 02:16:00,-2.7,-6.4,30.22,SE,135,1.1,1.1,84,0.00,CLR,SKC,0.00,WeatherDisplay:10.37,2013-01-18 08:16:00,
2013-01-18 02:21:00,-2.4,-6.0,30.22,East,90,1.1,0.0,84,0.00,CLR,SKC,0.00,WeatherDisplay:10.37,2013-01-18 08:21:00,
2013-01-18 02:26:00,-2.0,-5.7,30.23,SE,135,1.1,0.0,84,0.00,CLR,SKC,0.00,WeatherDisplay:10.37,2013-01-18 08:26:00,
2013-01-18 02:31:00,-1.8,-5.5,30.22,SE,135,1.1,0.0,84,0.00,CLR,SKC,0.00,WeatherDisplay:10.37,2013-01-18 08:31:00,
2013-01-18 02:37:00,-1.5,-5.1,30.22,East,90,1.1,0.0,84,0.00,CLR,SKC,0.00,WeatherDisplay:10.37,2013-01-18 08:37:00,
2013-01-18 02:42:00,-1.5,-5.1,30.22,South,180,3.5,3.5,84,0.00,CLR,SKC,0.00,WeatherDisplay:10.37,2013-01-18 08:42:00,
2013-01-18 02:47:00,-1.3,-5.0,30.22,East,90,1.1,0.0,84,0.00,CLR,SKC,0.00,WeatherDisplay:10.37,2013-01-18 08:47:00,
2013-01-18 02:52:00,-1.1,-4.8,30.22,SE,135,1.1,1.6,84,0.00,CLR,SKC,0.00,WeatherDisplay:10.37,2013-01-18 08:52:00,
2013-01-18 02:57:00,-0.9,-4.6,30.21,SW,225,3.5,3.5,84,0.00,CLR,SKC,0.00,WeatherDisplay:10.37,2013-01-18 08:57:00,
2013-01-18 03:03:00,-0.8,-4.4,30.21,South,180,2.3,2.3,84,0.00,CLR,SKC,0.00,WeatherDisplay:10.37,2013-01-18 09:03:00,
2013-01-18 03:08:00,-0.6,-4.3,30.20,South,180,2.3,2.3,84,0.00,CLR,SKC,0.00,WeatherDisplay:10.37,2013-01-18 09:08:00,
2013-01-18 03:13:00,-0.4,-4.1,30.19,South,180,1.1,0.0,84,0.00,CLR,SKC,0.00,WeatherDisplay:10.37,2013-01-18 09:13:00,
2013-01-18 03:18:00,-0.2,-3.9,30.20,SW,225,3.5,3.5,84,0.00,CLR,SKC,0.00,WeatherDisplay:10.37,2013-01-18 09:18:00,
2013-01-18 03:24:00,0.0,-3.7,30.19,South,180,3.5,3.5,84,0.00,CLR,SKC,0.00,WeatherDisplay:10.37,2013-01-18 09:24:00,
2013-01-18 03:29:00,0.3,-3.4,30.19,SE,135,4.6,0.0,84,0.00,CLR,SKC,0.00,WeatherDisplay:10.37,2013-01-18 09:29:00,
2013-01-18 03:34:00,0.5,-2.9,30.19,SW,225,3.5,3.5,85,0.00,CLR,SKC,0.00,WeatherDisplay:10.37,2013-01-18 09:34:00,
2013-01-18 03:39:00,0.9,-2.6,30.19,SE,135,3.5,3.5,85,0.00,CLR,SKC,0.00,WeatherDisplay:10.37,2013-01-18 09:39:00,
2013-01-18 03:45:00,1.0,-2.4,30.18,NE,45,1.1,0.0,85,0.00,CLR,SKC,0.00,WeatherDisplay:10.37,2013-01-18 09:45:00,
2013-01-18 03:50:00,1.4,-2.1,30.17,South,180,3.5,3.5,85,0.00,CLR,SKC,0.00,WeatherDisplay:10.37,2013-01-18 09:50:00,
2013-01-18 03:55:00,1.6,-1.9,30.17,SE,135,2.3,2.3,85,0.00,CLR,SKC,0.00,WeatherDisplay:10.37,2013-01-18 09:55:00,
2013-01-18 04:00:00,1.9,-1.5,30.17,South,180,1.1,1.1,85,0.00,CLR,SKC,0.00,WeatherDisplay:10.37,2013-01-18 10:00:00,
2013-01-18 04:05:00,1.9,-1.5,30.16,South,180,1.1,1.1,85,0.00,CLR,SKC,0.00,WeatherDisplay:10.37,2013-01-18 10:05:00,
2013-01-18 04:11:00,2.3,-1.2,30.15,SW,225,1.1,1.1,85,0.00,CLR,SKC,0.00,WeatherDisplay:10.37,2013-01-18 10:11:00,
2013-01-18 04:16:00,2.7,-0.8,30.15,SW,225,5.8,5.8,85,0.00,CLR,SKC,0.00,WeatherDisplay:10.37,2013-01-18 10:16:00,
2013-01-18 04:21:00,2.8,-0.6,30.14,South,180,3.5,3.5,85,0.00,CLR,SKC,0.00,WeatherDisplay:10.37,2013-01-18 10:21:00,
2013-01-18 04:27:00,3.0,-0.5,30.14,South,180,3.5,3.5,85,0.00,CLR,SKC,0.00,WeatherDisplay:10.37,2013-01-18 10:27:00,
2013-01-18 04:32:00,3.4,-0.1,30.14,East,90,2.3,2.3,85,0.00,CLR,SKC,0.00,WeatherDisplay:10.37,2013-01-18 10:32:00,
2013-01-18 04:37:00,3.6,0.3,30.14,South,180,3.5,3.5,86,0.00,CLR,SKC,0.00,WeatherDisplay:10.37,2013-01-18 10:37:00,
2013-01-18 04:42:00,3.7,0.2,30.13,South,180,5.4,5.4,85,0.00,CLR,SKC,0.00,WeatherDisplay:10.37,2013-01-18 10:42:00,
2013-01-18 04:47:00,3.9,0.4,30.13,South,180,5.8,5.8,85,0.00,CLR,SKC,0.00,WeatherDisplay:10.37,2013-01-18 10:47:00,
2013-01-18 04:53:00,4.1,0.6,30.13,South,180,3.5,3.5,85,0.00,CLR,SKC,0.00,WeatherDisplay:10.37,2013-01-18 10:53:00,
2013-01-18 04:58:00,4.3,0.8,30.13,South,180,6.9,6.9,85,0.00,CLR,SKC,0.00,WeatherDisplay:10.37,2013-01-18 10:58:00,
2013-01-18 05:03:00,4.3,0.8,30.12,South,180,4.6,4.6,85,0.00,CLR,SKC,0.00,WeatherDisplay:10.37,2013-01-18 11:03:00,
2013-01-18 05:08:00,4.6,1.1,30.12,NW,315,4.6,4.6,85,0.00,CLR,SKC,0.00,WeatherDisplay:10.37,2013-01-18 11:08:00,
2013-01-18 05:13:00,4.8,1.3,30.11,South,180,2.3,2.3,85,0.00,CLR,SKC,0.00,WeatherDisplay:10.37,2013-01-18 11:13:00,
2013-01-18 05:18:00,4.8,1.3,30.11,South,180,4.6,4.6,85,0.00,CLR,SKC,0.00,WeatherDisplay:10.37,2013-01-18 11:18:00,
2013-01-18 05:24:00,5.0,1.7,30.11,South,180,5.8,5.8,86,0.00,CLR,SKC,0.00,WeatherDisplay:10.37,2013-01-18 11:24:00,
2013-01-18 05:29:00,5.0,1.7,30.11,South,180,5.8,5.8,86,0.00,CLR,SKC,0.00,WeatherDisplay:10.37,2013-01-18 11:29:00,
2013-01-18 05:34:00,5.2,1.9,30.11,South,180,10.4,10.4,86,0.00,CLR,SKC,0.00,WeatherDisplay:10.37,2013-01-18 11:34:00,
2013-01-18 05:39:00,5.2,1.9,30.10,SSW,202,5.8,5.8,86,0.00,CLR,SKC,0.00,WeatherDisplay:10.37,2013-01-18 11:39:00,
2013-01-18 05:45:00,5.4,2.1,30.10,South,180,5.8,5.8,86,0.00,CLR,SKC,0.00,WeatherDisplay:10.37,2013-01-18 11:45:00,
2013-01-18 05:50:00,5.5,2.3,30.10,ENE,68,3.5,3.5,86,0.00,CLR,SKC,0.00,WeatherDisplay:10.37,2013-01-18 11:50:00,
2013-01-18 05:55:00,5.5,2.5,30.10,South,180,3.5,3.5,87,0.00,CLR,SKC,0.00,WeatherDisplay:10.37,2013-01-18 11:55:00,
2013-01-18 06:00:00,5.7,2.7,30.09,South,180,6.0,6.0,87,0.00,CLR,SKC,0.00,WeatherDisplay:10.37,2013-01-18 12:00:00,
2013-01-18 06:05:00,5.7,2.7,30.09,South,180,5.8,5.8,87,0.00,CLR,SKC,0.00,WeatherDisplay:10.37,2013-01-18 12:05:00,
2013-01-18 06:11:00,5.9,2.9,30.09,West,270,3.5,3.8,87,0.00,CLR,SKC,0.00,WeatherDisplay:10.37,2013-01-18 12:11:00,
2013-01-18 06:16:00,5.9,2.9,30.08,South,180,8.1,8.1,87,0.00,CLR,SKC,0.00,WeatherDisplay:10.37,2013-01-18 12:16:00,
2013-01-18 06:21:00,6.1,3.3,30.08,SE,135,5.8,5.8,88,0.00,CLR,SKC,0.00,WeatherDisplay:10.37,2013-01-18 12:21:00,
2013-01-18 06:26:00,6.1,3.3,30.08,SE,135,3.5,3.5,88,0.00,CLR,SKC,0.00,WeatherDisplay:10.37,2013-01-18 12:26:00,
2013-01-18 06:31:00,6.3,3.5,30.07,South,180,2.3,2.3,88,0.00,CLR,SKC,0.00,WeatherDisplay:10.37,2013-01-18 12:31:00,
2013-01-18 06:37:00,6.3,3.5,30.07,SE,135,4.6,4.6,88,0.00,CLR,SKC,0.00,WeatherDisplay:10.37,2013-01-18 12:37:00,
2013-01-18 06:42:00,6.3,3.5,30.06,SE,135,4.6,4.6,88,0.00,CLR,SKC,0.00,WeatherDisplay:10.37,2013-01-18 12:42:00,
2013-01-18 06:47:00,6.3,3.5,30.05,SE,135,3.5,3.5,88,0.00,CLR,SKC,0.00,WeatherDisplay:10.37,2013-01-18 12:47:00,
2013-01-18 06:52:00,6.3,3.5,30.04,South,180,3.5,3.5,88,0.00,CLR,SKC,0.00,WeatherDisplay:10.37,2013-01-18 12:52:00,
2013-01-18 06:57:00,6.3,3.5,30.04,SE,135,8.1,8.1,88,0.00,CLR,SKC,0.00,WeatherDisplay:10.37,2013-01-18 12:57:00,
2013-01-18 07:03:00,6.3,3.5,30.03,South,180,2.3,2.3,88,0.00,CLR,SKC,0.00,WeatherDisplay:10.37,2013-01-18 13:03:00,
2013-01-18 07:08:00,6.3,3.5,30.03,South,180,2.3,2.3,88,0.00,CLR,SKC,0.00,WeatherDisplay:10.37,2013-01-18 13:08:00,
2013-01-18 07:13:00,6.4,3.6,30.02,SE,135,9.2,9.2,88,0.00,CLR,SKC,0.00,WeatherDisplay:10.37,2013-01-18 13:13:00,
2013-01-18 07:18:00,6.4,3.6,30.01,East,90,5.8,5.8,88,0.00,CLR,SKC,0.00,WeatherDisplay:10.37,2013-01-18 13:18:00,
2013-01-18 07:24:00,6.4,3.6,30.01,South,180,5.8,5.8,88,0.00,CLR,SKC,0.00,WeatherDisplay:10.37,2013-01-18 13:24:00,
2013-01-18 07:29:00,6.4,3.6,30.01,SW,225,4.6,4.6,88,0.00,CLR,SKC,0.00,WeatherDisplay:10.37,2013-01-18 13:29:00,
2013-01-18 07:34:00,6.6,3.8,30.00,SE,135,6.9,6.9,88,0.00,CLR,SKC,0.00,WeatherDisplay:10.37,2013-01-18 13:34:00,
2013-01-18 07:39:00,6.6,3.8,30.00,NW,315,8.1,8.1,88,0.00,CLR,SKC,0.00,WeatherDisplay:10.37,2013-01-18 13:39:00,
2013-01-18 07:44:00,6.6,3.8,29.99,SW,225,8.1,8.1,88,0.00,CLR,SKC,0.00,WeatherDisplay:10.37,2013-01-18 13:44:00,
2013-01-18 07:50:00,6.8,4.0,29.99,SE,135,11.5,11.5,88,0.00,CLR,SKC,0.00,WeatherDisplay:10.37,2013-01-18 13:50:00,
2013-01-18 07:55:00,6.8,4.0,29.98,WSW,248,5.8,5.8,88,0.00,CLR,SKC,0.00,WeatherDisplay:10.37,2013-01-18 13:55:00,
2013-01-18 08:00:00,6.8,4.0,29.98,South,180,8.1,8.1,88,0.00,CLR,SKC,0.00,WeatherDisplay:10.37,2013-01-18 14:00:00,
2013-01-18 08:05:00,6.8,4.0,29.96,South,180,8.1,8.1,88,0.00,CLR,SKC,0.00,WeatherDisplay:10.37,2013-01-18 14:05:00,
2013-01-18 08:10:00,7.0,4.2,29.96,NE,45,9.2,9.2,88,0.00,CLR,SKC,0.00,WeatherDisplay:10.37,2013-01-18 14:10:00,
2013-01-18 08:16:00,7.0,4.2,29.96,South,180,8.1,8.1,88,0.00,CLR,SKC,0.00,WeatherDisplay:10.37,2013-01-18 14:16:00,
2013-01-18 08:21:00,7.3,4.8,29.96,SSW,202,5.8,5.8,89,0.00,CLR,SKC,0.00,WeatherDisplay:10.37,2013-01-18 14:21:00,
2013-01-18 08:26:00,7.2,4.6,29.95,SW,225,5.8,5.8,89,0.00,CLR,SKC,0.00,WeatherDisplay:10.37,2013-01-18 14:26:00,
2013-01-18 08:32:00,7.3,4.8,29.95,South,180,8.1,8.1,89,0.00,CLR,SKC,0.00,WeatherDisplay:10.37,2013-01-18 14:32:00,
2013-01-18 08:37:00,7.5,5.0,29.95,NW,315,3.5,3.5,89,0.00,CLR,SKC,0.00,WeatherDisplay:10.37,2013-01-18 14:37:00,
2013-01-18 08:42:00,7.5,5.0,29.95,South,180,4.6,0.0,89,0.00,CLR,SKC,0.00,WeatherDisplay:10.37,2013-01-18 14:42:00,
2013-01-18 08:47:00,7.7,5.1,29.95,South,180,2.3,2.3,89,0.00,CLR,SKC,0.00,WeatherDisplay:10.37,2013-01-18 14:47:00,
2013-01-18 08:52:00,7.9,5.3,29.95,East,90,5.8,5.8,89,0.00,CLR,SKC,0.00,WeatherDisplay:10.37,2013-01-18 14:52:00,
2013-01-18 08:58:00,8.1,5.5,29.94,NE,45,5.8,5.8,89,0.00,CLR,SKC,0.00,WeatherDisplay:10.37,2013-01-18 14:58:00,
2013-01-18 09:03:00,8.2,5.7,29.94,NW,315,5.8,5.8,89,0.00,CLR,SKC,0.00,WeatherDisplay:10.37,2013-01-18 15:03:00,
2013-01-18 09:08:00,8.2,5.7,29.93,NW,315,5.8,5.8,89,0.00,CLR,SKC,0.00,WeatherDisplay:10.37,2013-01-18 15:08:00,
2013-01-18 09:13:00,8.4,5.8,29.93,SW,225,4.6,4.6,89,0.00,CLR,SKC,0.00,WeatherDisplay:10.37,2013-01-18 15:13:00,
2013-01-18 09:18:00,8.8,6.2,29.93,SW,225,8.1,8.1,89,0.00,CLR,SKC,0.00,WeatherDisplay:10.37,2013-01-18 15:18:00,
2013-01-18 09:23:00,9.0,6.4,29.93,East,90,5.8,5.8,89,0.00,CLR,SKC,0.00,WeatherDisplay:10.37,2013-01-18 15:23:00,
2013-01-18 09:28:00,9.1,6.6,29.93,NW,315,6.9,6.9,89,0.00,CLR,SKC,0.00,WeatherDisplay:10.37,2013-01-18 15:28:00,
2013-01-18 09:34:00,9.3,6.5,29.93,South,180,5.8,5.8,88,0.00,CLR,SKC,0.00,WeatherDisplay:10.37,2013-01-18 15:34:00,
2013-01-18 09:39:00,9.5,6.7,29.92,East,90,8.1,8.1,88,0.00,CLR,SKC,0.00,WeatherDisplay:10.37,2013-01-18 15:39:00,
2013-01-18 09:44:00,9.5,6.7,29.92,South,180,8.1,8.1,88,0.00,CLR,SKC,0.00,WeatherDisplay:10.37,2013-01-18 15:44:00,
2013-01-18 09:49:00,9.7,6.8,29.92,SW,225,6.9,6.9,88,0.00,CLR,SKC,0.00,WeatherDisplay:10.37,2013-01-18 15:49:00,
2013-01-18 09:55:00,9.9,7.0,29.92,South,180,5.8,5.8,88,0.00,CLR,SKC,0.00,WeatherDisplay:10.37,2013-01-18 15:55:00,
2013-01-18 10:00:00,9.9,7.0,29.92,SW,225,8.1,8.1,88,0.00,CLR,SKC,0.00,WeatherDisplay:10.37,2013-01-18 16:00:00,
2013-01-18 10:05:00,9.9,7.0,29.91,SW,225,8.1,8.1,88,0.00,CLR,SKC,0.00,WeatherDisplay:10.37,2013-01-18 16:05:00,
2013-01-18 10:10:00,10.0,7.4,29.91,SE,135,4.6,4.6,89,0.00,CLR,SKC,0.00,WeatherDisplay:10.37,2013-01-18 16:10:00,
2013-01-18 10:15:00,10.2,7.6,29.91,SE,135,8.1,8.1,89,0.00,CLR,SKC,0.00,WeatherDisplay:10.37,2013-01-18 16:15:00,
2013-01-18 10:21:00,10.4,7.8,29.89,SW,225,6.9,6.9,89,0.00,CLR,SKC,0.00,WeatherDisplay:10.37,2013-01-18 16:21:00,
2013-01-18 10:26:00,10.6,8.0,29.89,SE,135,5.8,5.8,89,0.00,CLR,SKC,0.00,WeatherDisplay:10.37,2013-01-18 16:26:00,
2013-01-18 10:31:00,10.8,8.2,29.89,SE,135,5.8,5.8,89,0.00,CLR,SKC,0.00,WeatherDisplay:10.37,2013-01-18 16:31:00,
2013-01-18 10:36:00,10.9,8.3,29.89,SE,135,2.3,2.3,89,0.00,CLR,SKC,0.00,WeatherDisplay:10.37,2013-01-18 16:36:00,
2013-01-18 10:42:00,11.1,8.5,29.88,East,90,5.8,5.8,89,0.00,CLR,SKC,0.00,WeatherDisplay:10.37,2013-01-18 16:42:00,
2013-01-18 10:47:00,11.5,8.9,29.88,SW,225,3.5,3.5,89,0.00,CLR,SKC,0.00,WeatherDisplay:10.37,2013-01-18 16:47:00,
2013-01-18 10:52:00,11.7,9.3,29.88,East,90,5.8,5.8,90,0.00,CLR,SKC,0.00,WeatherDisplay:10.37,2013-01-18 16:52:00,
2013-01-18 10:57:00,11.8,9.5,29.87,SE,135,4.6,4.6,90,0.00,CLR,SKC,0.00,WeatherDisplay:10.37,2013-01-18 16:57:00,
2013-01-18 11:03:00,11.8,9.5,29.88,East,90,3.5,3.5,90,0.00,CLR,SKC,0.00,WeatherDisplay:10.37,2013-01-18 17:03:00,
2013-01-18 11:08:00,12.4,10.0,29.86,SW,225,4.6,4.6,90,0.00,CLR,SKC,0.00,WeatherDisplay:10.37,2013-01-18 17:08:00,
2013-01-18 11:13:00,12.7,10.4,29.85,South,180,3.5,3.5,90,0.00,CLR,SKC,0.00,WeatherDisplay:10.37,2013-01-18 17:13:00,
2013-01-18 11:18:00,13.1,10.7,29.85,SE,135,5.8,5.8,90,0.00,CLR,SKC,0.00,WeatherDisplay:10.37,2013-01-18 17:18:00,
2013-01-18 11:24:00,13.6,11.3,29.84,SE,135,6.0,6.0,90,0.00,CLR,SKC,0.00,WeatherDisplay:10.37,2013-01-18 17:24:00,
2013-01-18 11:29:00,14.0,11.6,29.85,South,180,5.8,5.8,90,0.00,CLR,SKC,0.00,WeatherDisplay:10.37,2013-01-18 17:29:00,
2013-01-18 11:34:00,14.0,11.6,29.85,South,180,5.8,5.8,90,0.00,CLR,SKC,0.00,WeatherDisplay:10.37,2013-01-18 17:34:00,
2013-01-18 11:39:00,14.2,11.8,29.85,South,180,5.8,5.8,90,0.00,CLR,SKC,0.00,WeatherDisplay:10.37,2013-01-18 17:39:00,
2013-01-18 11:44:00,14.2,11.8,29.84,South,180,8.1,8.1,90,0.00,CLR,SKC,0.00,WeatherDisplay:10.37,2013-01-18 17:44:00,
2013-01-18 11:50:00,14.5,12.1,29.83,SE,135,6.9,6.9,90,0.00,CLR,SKC,0.00,WeatherDisplay:10.37,2013-01-18 17:50:00,
2013-01-18 11:55:00,14.7,12.3,29.83,South,180,3.5,3.5,90,0.00,CLR,SKC,0.00,WeatherDisplay:10.37,2013-01-18 17:55:00,
2013-01-18 12:00:00,15.3,13.1,29.82,SW,225,4.6,4.6,91,0.00,CLR,SKC,0.00,WeatherDisplay:10.37,2013-01-18 18:00:00,
2013-01-18 12:05:00,15.8,13.4,29.81,SSE,158,4.6,4.6,90,0.00,CLR,SKC,0.00,WeatherDisplay:10.37,2013-01-18 18:05:00,
2013-01-18 12:10:00,16.2,13.7,29.81,East,90,3.5,3.5,90,0.00,CLR,SKC,0.00,WeatherDisplay:10.37,2013-01-18 18:10:00,
2013-01-18 12:16:00,16.3,13.9,29.80,East,90,3.5,3.5,90,0.00,CLR,SKC,0.00,WeatherDisplay:10.37,2013-01-18 18:16:00,
2013-01-18 12:21:00,16.7,14.3,29.80,South,180,3.5,3.5,90,0.00,CLR,SKC,0.00,WeatherDisplay:10.37,2013-01-18 18:21:00,
2013-01-18 12:26:00,16.9,14.2,29.80,South,180,4.6,4.6,89,0.00,CLR,SKC,0.00,WeatherDisplay:10.37,2013-01-18 18:26:00,
2013-01-18 12:31:00,17.2,14.6,29.79,South,180,5.8,5.8,89,0.00,CLR,SKC,0.00,WeatherDisplay:10.37,2013-01-18 18:31:00,
2013-01-18 12:36:00,17.2,14.6,29.79,SW,225,5.8,5.8,89,0.00,CLR,SKC,0.00,WeatherDisplay:10.37,2013-01-18 18:36:00,
2013-01-18 12:42:00,17.6,14.9,29.78,South,180,6.9,6.9,89,0.00,CLR,SKC,0.00,WeatherDisplay:10.37,2013-01-18 18:42:00,
2013-01-18 12:47:00,17.8,15.1,29.77,SSE,158,3.5,3.5,89,0.00,CLR,SKC,0.00,WeatherDisplay:10.37,2013-01-18 18:47:00,
2013-01-18 12:52:00,18.1,15.4,29.78,South,180,5.8,5.8,89,0.00,CLR,SKC,0.00,WeatherDisplay:10.37,2013-01-18 18:52:00,
2013-01-18 12:58:00,18.1,15.4,29.78,SW,225,5.8,5.8,89,0.00,CLR,SKC,0.00,WeatherDisplay:10.37,2013-01-18 18:58:00,
2013-01-18 13:03:00,18.1,15.2,29.78,South,180,5.8,5.8,88,0.00,CLR,SKC,0.00,WeatherDisplay:10.37,2013-01-18 19:03:00,
2013-01-18 13:08:00,18.3,15.6,29.78,SW,225,8.1,8.1,89,0.00,CLR,SKC,0.00,WeatherDisplay:10.37,2013-01-18 19:08:00,
2013-01-18 13:13:00,18.7,16.0,29.77,SW,225,5.8,5.8,89,0.00,CLR,SKC,0.00,WeatherDisplay:10.37,2013-01-18 19:13:00,
2013-01-18 13:18:00,18.7,15.7,29.77,South,180,4.6,4.6,88,0.00,CLR,SKC,0.00,WeatherDisplay:10.37,2013-01-18 19:18:00,
2013-01-18 13:24:00,18.9,15.9,29.77,South,180,5.8,5.8,88,0.00,CLR,SKC,0.00,WeatherDisplay:10.37,2013-01-18 19:24:00,
2013-01-18 13:29:00,19.0,16.1,29.77,South,180,5.8,5.8,88,0.00,CLR,SKC,0.00,WeatherDisplay:10.37,2013-01-18 19:29:00,
2013-01-18 13:34:00,19.2,16.2,29.77,South,180,3.5,3.5,88,0.00,CLR,SKC,0.00,WeatherDisplay:10.37,2013-01-18 19:34:00,
2013-01-18 13:39:00,19.8,16.8,29.76,SW,225,5.8,5.8,88,0.00,CLR,SKC,0.00,WeatherDisplay:10.37,2013-01-18 19:39:00,
2013-01-18 13:44:00,20.1,16.9,29.76,SE,135,3.5,3.5,87,0.00,CLR,SKC,0.00,WeatherDisplay:10.37,2013-01-18 19:44:00,
2013-01-18 13:50:00,19.9,16.4,29.76,South,180,4.6,4.6,86,0.00,CLR,SKC,0.00,WeatherDisplay:10.37,2013-01-18 19:50:00,
2013-01-18 13:55:00,19.8,16.3,29.76,SW,225,5.8,5.8,86,0.00,CLR,SKC,0.00,WeatherDisplay:10.37,2013-01-18 19:55:00,
2013-01-18 14:00:00,19.8,16.3,29.76,South,180,4.6,5.4,86,0.00,CLR,SKC,0.00,WeatherDisplay:10.37,2013-01-18 20:00:00,
2013-01-18 14:05:00,19.8,16.3,29.76,South,180,5.8,5.8,86,0.00,CLR,SKC,0.00,WeatherDisplay:10.37,2013-01-18 20:05:00,
2013-01-18 14:10:00,19.6,16.3,29.76,South,180,5.8,5.8,87,0.00,CLR,SKC,0.00,WeatherDisplay:10.37,2013-01-18 20:10:00,
2013-01-18 14:15:00,19.8,16.5,29.75,SW,225,3.5,3.5,87,0.00,CLR,SKC,0.00,WeatherDisplay:10.37,2013-01-18 20:15:00,
2013-01-18 14:20:00,20.1,16.9,29.75,SE,135,4.6,4.6,87,0.00,CLR,SKC,0.00,WeatherDisplay:10.37,2013-01-18 20:20:00,
2013-01-18 14:26:00,20.5,17.2,29.75,East,90,2.3,2.3,87,0.00,CLR,SKC,0.00,WeatherDisplay:10.37,2013-01-18 20:26:00,
2013-01-18 14:31:00,20.7,17.4,29.74,South,180,3.5,3.5,87,0.00,CLR,SKC,0.00,WeatherDisplay:10.37,2013-01-18 20:31:00,
2013-01-18 14:36:00,20.7,17.1,29.73,South,180,5.8,5.8,86,0.00,CLR,SKC,0.00,WeatherDisplay:10.37,2013-01-18 20:36:00,
2013-01-18 14:41:00,20.7,17.1,29.73,SW,225,2.3,2.3,86,0.00,CLR,SKC,0.00,WeatherDisplay:10.37,2013-01-18 20:41:00,
2013-01-18 14:46:00,20.7,17.1,29.73,SW,225,3.5,3.5,86,0.00,CLR,SKC,0.00,WeatherDisplay:10.37,2013-01-18 20:46:00,
2013-01-18 14:51:00,20.7,17.1,29.73,SE,135,3.5,0.0,86,0.00,CLR,SKC,0.00,WeatherDisplay:10.37,2013-01-18 20:51:00,
2013-01-18 14:56:00,20.8,17.3,29.73,SE,135,3.5,3.5,86,0.00,CLR,SKC,0.00,WeatherDisplay:10.37,2013-01-18 20:56:00,
2013-01-18 15:01:00,20.8,17.3,29.73,South,180,3.5,3.5,86,0.00,CLR,SKC,0.00,WeatherDisplay:10.37,2013-01-18 21:01:00,
2013-01-18 15:07:00,20.8,17.3,29.73,SSW,202,4.6,4.6,86,0.00,CLR,SKC,0.00,WeatherDisplay:10.37,2013-01-18 21:07:00,
2013-01-18 15:12:00,20.8,17.3,29.73,SE,135,3.5,3.5,86,0.00,CLR,SKC,0.00,WeatherDisplay:10.37,2013-01-18 21:12:00,
2013-01-18 15:17:00,20.8,17.3,29.73,SW,225,3.5,3.5,86,0.00,CLR,SKC,0.00,WeatherDisplay:10.37,2013-01-18 21:17:00,
2013-01-18 15:22:00,20.7,17.4,29.74,South,180,4.6,4.6,87,0.00,CLR,SKC,0.00,WeatherDisplay:10.37,2013-01-18 21:22:00,
2013-01-18 15:28:00,20.7,17.4,29.73,South,180,5.8,5.8,87,0.00,CLR,SKC,0.00,WeatherDisplay:10.37,2013-01-18 21:28:00,
2013-01-18 15:33:00,20.8,17.6,29.74,South,180,2.3,2.3,87,0.00,CLR,SKC,0.00,WeatherDisplay:10.37,2013-01-18 21:33:00,
2013-01-18 15:38:00,20.8,17.6,29.74,South,180,1.1,1.1,87,0.00,CLR,SKC,0.00,WeatherDisplay:10.37,2013-01-18 21:38:00,
2013-01-18 15:43:00,20.8,17.8,29.74,South,180,3.5,3.5,88,0.00,CLR,SKC,0.00,WeatherDisplay:10.37,2013-01-18 21:43:00,
2013-01-18 15:49:00,20.8,17.8,29.74,South,180,3.5,3.5,88,0.00,CLR,SKC,0.00,WeatherDisplay:10.37,2013-01-18 21:49:00,
2013-01-18 15:54:00,20.8,17.8,29.74,South,180,3.5,3.5,88,0.00,CLR,SKC,0.00,WeatherDisplay:10.37,2013-01-18 21:54:00,
2013-01-18 15:59:00,21.0,18.0,29.73,East,90,1.6,0.0,88,0.00,CLR,SKC,0.00,WeatherDisplay:10.37,2013-01-18 21:59:00,
2013-01-18 16:04:00,21.0,18.0,29.73,SE,135,1.1,0.0,88,0.00,CLR,SKC,0.00,WeatherDisplay:10.37,2013-01-18 22:04:00,
2013-01-18 16:09:00,21.0,18.0,29.73,South,180,2.3,2.3,88,0.00,CLR,SKC,0.00,WeatherDisplay:10.37,2013-01-18 22:09:00,
2013-01-18 16:14:00,21.2,18.5,29.73,South,180,1.1,0.0,89,0.00,CLR,SKC,0.00,WeatherDisplay:10.37,2013-01-18 22:14:00,
2013-01-18 16:20:00,21.2,18.5,29.74,South,180,3.5,3.5,89,0.00,CLR,SKC,0.00,WeatherDisplay:10.37,2013-01-18 22:20:00,
2013-01-18 16:25:00,21.2,18.5,29.74,South,180,1.1,0.0,89,0.00,CLR,SKC,0.00,WeatherDisplay:10.37,2013-01-18 22:25:00,
2013-01-18 16:30:00,21.2,18.5,29.75,SSW,202,2.3,2.3,89,0.00,CLR,SKC,0.00,WeatherDisplay:10.37,2013-01-18 22:30:00,
2013-01-18 16:35:00,21.2,18.5,29.74,South,180,3.5,3.5,89,0.00,CLR,SKC,0.00,WeatherDisplay:10.37,2013-01-18 22:35:00,
2013-01-18 16:41:00,21.2,18.5,29.75,SW,225,3.5,3.5,89,0.00,CLR,SKC,0.00,WeatherDisplay:10.37,2013-01-18 22:41:00,
2013-01-18 16:46:00,21.2,18.5,29.74,East,90,3.5,0.0,89,0.00,CLR,SKC,0.00,WeatherDisplay:10.37,2013-01-18 22:46:00,
2013-01-18 16:51:00,21.2,18.5,29.74,SW,225,1.1,0.0,89,0.00,CLR,SKC,0.00,WeatherDisplay:10.37,2013-01-18 22:51:00,
2013-01-18 16:56:00,21.2,18.7,29.74,South,180,1.1,1.1,90,0.00,CLR,SKC,0.00,WeatherDisplay:10.37,2013-01-18 22:56:00,
2013-01-18 17:02:00,21.2,18.7,29.74,South,180,1.6,1.6,90,0.00,CLR,SKC,0.00,WeatherDisplay:10.37,2013-01-18 23:02:00,
2013-01-18 17:07:00,21.2,18.7,29.73,South,180,1.1,1.1,90,0.00,CLR,SKC,0.00,WeatherDisplay:10.37,2013-01-18 23:07:00,
2013-01-18 17:12:00,21.2,18.7,29.73,South,180,1.1,0.0,90,0.00,CLR,SKC,0.00,WeatherDisplay:10.37,2013-01-18 23:12:00,
2013-01-18 17:17:00,21.2,18.7,29.72,SE,135,1.1,1.1,90,0.00,CLR,SKC,0.00,WeatherDisplay:10.37,2013-01-18 23:17:00,
2013-01-18 17:23:00,21.2,18.7,29.73,East,90,1.1,0.0,90,0.00,CLR,SKC,0.00,WeatherDisplay:10.37,2013-01-18 23:23:00,
2013-01-18 17:28:00,21.2,18.7,29.72,SE,135,1.1,0.0,90,0.00,CLR,SKC,0.00,WeatherDisplay:10.37,2013-01-18 23:28:00,
2013-01-18 17:33:00,21.0,18.8,29.73,SE,135,1.1,0.0,91,0.00,CLR,SKC,0.00,WeatherDisplay:10.37,2013-01-18 23:33:00,
2013-01-18 17:38:00,21.0,18.8,29.72,SE,135,1.1,0.0,91,0.00,CLR,SKC,0.00,WeatherDisplay:10.37,2013-01-18 23:38:00,
2013-01-18 17:43:00,21.0,18.8,29.71,SE,135,0.0,0.0,91,0.00,CLR,SKC,0.00,WeatherDisplay:10.37,2013-01-18 23:43:00,
2013-01-18 17:49:00,21.0,18.8,29.72,SE,135,1.1,0.0,91,0.00,CLR,SKC,0.00,WeatherDisplay:10.37,2013-01-18 23:49:00,
2013-01-18 17:54:00,21.0,18.8,29.71,SE,135,0.0,0.0,91,0.00,CLR,SKC,0.00,WeatherDisplay:10.37,2013-01-18 23:54:00,
2013-01-18 17:59:00,21.0,18.8,29.71,SW,225,1.1,0.0,91,0.00,CLR,SKC,0.00,WeatherDisplay:10.37,2013-01-18 23:59:00,
2013-01-18 18:04:00,21.0,18.8,29.72,SW,225,0.0,0.0,91,0.00,CLR,SKC,0.00,WeatherDisplay:10.37,2013-01-19 00:04:00,
2013-01-18 18:09:00,21.0,19.1,29.72,SW,225,0.0,0.0,92,0.00,CLR,SKC,0.00,WeatherDisplay:10.37,2013-01-19 00:09:00,
2013-01-18 18:14:00,21.0,19.1,29.73,SW,225,0.0,0.0,92,0.00,CLR,SKC,0.00,WeatherDisplay:10.37,2013-01-19 00:14:00,
2013-01-18 18:19:00,21.0,19.1,29.73,SW,225,0.0,0.0,92,0.00,CLR,SKC,0.00,WeatherDisplay:10.37,2013-01-19 00:19:00,
2013-01-18 18:25:00,21.2,19.2,29.73,SW,225,0.0,0.0,92,0.00,CLR,SKC,0.00,WeatherDisplay:10.37,2013-01-19 00:25:00,
2013-01-18 18:30:00,21.2,19.2,29.73,SW,225,0.0,0.0,92,0.00,CLR,SKC,0.00,WeatherDisplay:10.37,2013-01-19 00:30:00,
2013-01-18 18:35:00,21.2,19.2,29.72,SW,225,0.0,0.0,92,0.00,CLR,SKC,0.00,WeatherDisplay:10.37,2013-01-19 00:35:00,
2013-01-18 18:40:00,21.2,19.2,29.72,SW,225,0.0,0.0,92,0.00,CLR,SKC,0.00,WeatherDisplay:10.37,2013-01-19 00:40:00,
2013-01-18 18:45:00,21.2,19.2,29.73,SW,225,0.0,0.0,92,0.00,CLR,SKC,0.00,WeatherDisplay:10.37,2013-01-19 00:45:00,
2013-01-18 18:51:00,21.2,19.2,29.73,SW,225,0.0,0.0,92,0.00,CLR,SKC,0.00,WeatherDisplay:10.37,2013-01-19 00:51:00,
2013-01-18 18:56:00,21.2,19.2,29.73,SW,225,0.0,0.0,92,0.00,CLR,SKC,0.00,WeatherDisplay:10.37,2013-01-19 00:56:00,
2013-01-18 19:01:00,21.4,19.7,29.73,SW,225,0.0,0.0,93,0.00,CLR,SKC,0.00,WeatherDisplay:10.37,2013-01-19 01:01:00,
2013-01-18 19:06:00,21.4,19.7,29.73,SW,225,0.0,0.0,93,0.00,CLR,SKC,0.00,WeatherDisplay:10.37,2013-01-19 01:06:00,
2013-01-18 19:12:00,21.4,19.7,29.73,SW,225,0.0,0.0,93,0.00,CLR,SKC,0.00,WeatherDisplay:10.37,2013-01-19 01:12:00,
2013-01-18 19:17:00,21.4,19.7,29.73,SW,225,0.0,0.0,93,0.00,CLR,SKC,0.00,WeatherDisplay:10.37,2013-01-19 01:17:00,
2013-01-18 19:22:00,21.4,19.7,29.74,SW,225,0.0,0.0,93,0.00,CLR,SKC,0.00,WeatherDisplay:10.37,2013-01-19 01:22:00,
2013-01-18 19:28:00,21.4,19.7,29.73,SW,225,0.0,0.0,93,0.00,CLR,SKC,0.00,WeatherDisplay:10.37,2013-01-19 01:28:00,
2013-01-18 19:33:00,21.4,19.7,29.73,SW,225,0.0,0.0,93,0.00,CLR,SKC,0.00,WeatherDisplay:10.37,2013-01-19 01:33:00,
2013-01-18 19:38:00,21.4,19.7,29.73,SW,225,0.0,0.0,93,0.00,CLR,SKC,0.00,WeatherDisplay:10.37,2013-01-19 01:38:00,
2013-01-18 19:43:00,21.4,19.7,29.73,SW,225,0.0,0.0,93,0.00,CLR,SKC,0.00,WeatherDisplay:10.37,2013-01-19 01:43:00,
2013-01-18 19:48:00,21.4,19.7,29.73,SW,225,0.0,0.0,93,0.00,CLR,SKC,0.00,WeatherDisplay:10.37,2013-01-19 01:48:00,
2013-01-18 19:54:00,21.4,19.7,29.73,SW,225,0.0,0.0,93,0.00,CLR,SKC,0.00,WeatherDisplay:10.37,2013-01-19 01:54:00,
2013-01-18 19:59:00,21.4,19.7,29.73,SW,225,0.0,0.0,93,0.00,CLR,SKC,0.00,WeatherDisplay:10.37,2013-01-19 01:59:00,
2013-01-18 20:04:00,21.4,19.7,29.73,SW,225,0.0,0.0,93,0.00,CLR,SKC,0.00,WeatherDisplay:10.37,2013-01-19 02:04:00,
2013-01-18 20:09:00,21.4,19.7,29.73,NW,315,3.5,3.5,93,0.00,CLR,SKC,0.00,WeatherDisplay:10.37,2013-01-19 02:09:00,
2013-01-18 20:14:00,21.4,19.7,29.73,NW,315,1.1,0.0,93,0.00,CLR,SKC,0.00,WeatherDisplay:10.37,2013-01-19 02:14:00,
2013-01-18 20:20:00,21.2,19.5,29.73,NW,315,1.1,0.0,93,0.00,CLR,SKC,0.00,WeatherDisplay:10.37,2013-01-19 02:20:00,
2013-01-18 20:25:00,21.2,19.5,29.72,NW,315,1.1,0.0,93,0.00,CLR,SKC,0.00,WeatherDisplay:10.37,2013-01-19 02:25:00,
2013-01-18 20:30:00,21.2,19.5,29.73,East,90,0.0,0.0,93,0.00,CLR,SKC,0.00,WeatherDisplay:10.37,2013-01-19 02:30:00,
2013-01-18 20:35:00,21.2,19.5,29.73,NW,315,1.1,0.0,93,0.00,CLR,SKC,0.00,WeatherDisplay:10.37,2013-01-19 02:35:00,
2013-01-18 20:40:00,21.2,19.7,29.73,East,90,1.1,0.0,94,0.00,CLR,SKC,0.00,WeatherDisplay:10.37,2013-01-19 02:40:00,
2013-01-18 20:46:00,21.2,19.7,29.73,East,90,1.1,0.0,94,0.00,CLR,SKC,0.00,WeatherDisplay:10.37,2013-01-19 02:46:00,
2013-01-18 20:51:00,21.0,19.6,29.73,East,90,3.5,3.5,94,0.00,CLR,SKC,0.00,WeatherDisplay:10.37,2013-01-19 02:51:00,
2013-01-18 20:56:00,21.0,19.6,29.73,NE,45,1.1,1.1,94,0.00,CLR,SKC,0.00,WeatherDisplay:10.37,2013-01-19 02:56:00,
2013-01-18 21:01:00,20.8,19.4,29.73,East,90,1.1,0.0,94,0.00,CLR,SKC,0.00,WeatherDisplay:10.37,2013-01-19 03:01:00,
2013-01-18 21:07:00,20.8,19.4,29.74,East,90,1.1,0.0,94,0.00,CLR,SKC,0.00,WeatherDisplay:10.37,2013-01-19 03:07:00,
2013-01-18 21:12:00,20.1,18.4,29.73,SSE,158,2.3,2.3,93,0.00,CLR,SKC,0.00,WeatherDisplay:10.37,2013-01-19 03:12:00,
2013-01-18 21:17:00,19.8,17.8,29.74,SE,135,1.1,1.1,92,0.00,CLR,SKC,0.00,WeatherDisplay:10.37,2013-01-19 03:17:00,
2013-01-18 21:22:00,19.6,17.6,29.74,NE,45,1.1,0.0,92,0.00,CLR,SKC,0.00,WeatherDisplay:10.37,2013-01-19 03:22:00,
2013-01-18 21:27:00,19.2,17.3,29.74,East,90,5.8,5.8,92,0.00,CLR,SKC,0.00,WeatherDisplay:10.37,2013-01-19 03:27:00,
2013-01-18 21:32:00,19.0,17.1,29.74,East,90,1.6,1.6,92,0.00,CLR,SKC,0.00,WeatherDisplay:10.37,2013-01-19 03:32:00,
2013-01-18 21:38:00,19.0,17.1,29.73,East,90,1.1,1.1,92,0.00,CLR,SKC,0.00,WeatherDisplay:10.37,2013-01-19 03:38:00,
2013-01-18 21:43:00,18.9,16.9,29.74,NE,45,1.1,0.0,92,0.00,CLR,SKC,0.00,WeatherDisplay:10.37,2013-01-19 03:43:00,
2013-01-18 21:48:00,18.9,17.2,29.75,East,90,1.1,0.0,93,0.00,CLR,SKC,0.00,WeatherDisplay:10.37,2013-01-19 03:48:00,
2013-01-18 21:53:00,18.9,17.2,29.75,NW,315,2.3,0.0,93,0.00,CLR,SKC,0.00,WeatherDisplay:10.37,2013-01-19 03:53:00,
2013-01-18 21:58:00,18.9,17.2,29.74,East,90,1.1,1.1,93,0.00,CLR,SKC,0.00,WeatherDisplay:10.37,2013-01-19 03:58:00,
2013-01-18 22:03:00,18.9,17.2,29.74,East,90,1.1,1.1,93,0.00,CLR,SKC,0.00,WeatherDisplay:10.37,2013-01-19 04:03:00,
2013-01-18 22:09:00,18.9,17.2,29.74,NE,45,2.3,0.0,93,0.00,CLR,SKC,0.00,WeatherDisplay:10.37,2013-01-19 04:09:00,
2013-01-18 22:14:00,18.7,17.0,29.74,SE,135,1.1,0.0,93,0.00,CLR,SKC,0.00,WeatherDisplay:10.37,2013-01-19 04:14:00,
2013-01-18 22:19:00,18.7,17.0,29.73,SE,135,0.0,0.0,93,0.00,CLR,SKC,0.00,WeatherDisplay:10.37,2013-01-19 04:19:00,
2013-01-18 22:24:00,18.7,17.0,29.73,SE,135,0.0,0.0,93,0.00,CLR,SKC,0.00,WeatherDisplay:10.37,2013-01-19 04:24:00,
2013-01-18 22:29:00,18.7,17.0,29.73,North,0,1.1,0.0,93,0.00,CLR,SKC,0.00,WeatherDisplay:10.37,2013-01-19 04:29:00,
2013-01-18 22:34:00,18.7,17.0,29.72,East,90,1.1,0.0,93,0.00,CLR,SKC,0.00,WeatherDisplay:10.37,2013-01-19 04:34:00,
2013-01-18 22:39:00,18.5,16.8,29.73,North,0,0.0,0.0,93,0.00,CLR,SKC,0.00,WeatherDisplay:10.37,2013-01-19 04:39:00,
2013-01-18 22:44:00,18.5,16.8,29.72,SE,135,2.3,0.0,93,0.00,CLR,SKC,0.00,WeatherDisplay:10.37,2013-01-19 04:44:00,
2013-01-18 22:49:00,18.5,16.8,29.72,SE,135,0.0,0.0,93,0.00,CLR,SKC,0.00,WeatherDisplay:10.37,2013-01-19 04:49:00,
2013-01-18 22:55:00,18.5,16.8,29.72,North,0,0.0,0.0,93,0.00,CLR,SKC,0.00,WeatherDisplay:10.37,2013-01-19 04:55:00,
2013-01-18 23:00:00,18.5,16.8,29.73,North,0,0.0,0.0,93,0.00,CLR,SKC,0.00,WeatherDisplay:10.37,2013-01-19 05:00:00,
2013-01-18 23:04:00,18.5,16.8,29.73,North,0,0.0,0.0,93,0.00,CLR,SKC,0.00,WeatherDisplay:10.37,2013-01-19 05:04:00,
2013-01-18 23:09:00,18.5,16.8,29.73,East,90,0.0,0.0,93,0.00,CLR,SKC,0.00,WeatherDisplay:10.37,2013-01-19 05:09:00,
2013-01-18 23:15:00,18.3,16.9,29.72,East,90,0.0,0.0,94,0.00,CLR,SKC,0.00,WeatherDisplay:10.37,2013-01-19 05:15:00,
2013-01-18 23:20:00,18.3,16.9,29.72,SE,135,1.1,1.1,94,0.00,CLR,SKC,0.00,WeatherDisplay:10.37,2013-01-19 05:20:00,
2013-01-18 23:25:00,18.3,16.9,29.73,North,0,1.1,0.0,94,0.00,CLR,SKC,0.00,WeatherDisplay:10.37,2013-01-19 05:25:00,
2013-01-18 23:30:00,18.3,16.9,29.74,NW,315,3.5,3.5,94,0.00,CLR,SKC,0.00,WeatherDisplay:10.37,2013-01-19 05:30:00,
2013-01-18 23:35:00,18.3,16.9,29.74,NW,315,3.5,3.5,94,0.00,CLR,SKC,0.00,WeatherDisplay:10.37,2013-01-19 05:35:00,
2013-01-18 23:41:00,18.3,16.9,29.74,NW,315,3.5,3.5,94,0.00,CLR,SKC,0.00,WeatherDisplay:10.37,2013-01-19 05:41:00,
2013-01-18 23:46:00,18.3,16.9,29.74,West,270,2.3,2.3,94,0.00,CLR,SKC,0.00,WeatherDisplay:10.37,2013-01-19 05:46:00,
2013-01-18 23:51:00,18.3,17.1,29.73,West,270,1.1,0.0,95,0.00,CLR,SKC,0.00,WeatherDisplay:10.37,2013-01-19 05:51:00,
2013-01-18 23:56:00,18.3,17.1,29.74,NW,315,2.3,2.3,95,0.00,CLR,SKC,0.00,WeatherDisplay:10.37,2013-01-19 05:56:00,